Terminal Aerodrome Forecast
Issued by NWS

Home | Current Version | Previous Version | Text Only | Print | Product List | Glossary On
Versions: 1 2 3 4 5 6 7 8 9 10 11 12 13 14 15 16 17 18 19 20 21 22 23 24 25 26 27 28
000
FTUS44 KLZK 250520
TAFLLQ
TAF
KLLQ 250520Z 2506/2606 26010KT 6SM -RA SCT009 OVC070
      TEMPO 2506/2508 5SM -RA BR
     FM250800 30010KT P6SM BKN050 BKN100
      TEMPO 2510/2514 3SM BR
     FM251400 09009KT P6SM SCT100 BKN250
     FM252100 10006KT P6SM SCT050 OVC100
     FM260100 07010KT P6SM SCT025 BKN050 PROB30 2603/2606 3SM -RA BR
      BKN025=

USA.gov is the U.S. government's official web portal to all federal, state and local government web resources and services.